sensor_id;sensor_type;location;lat;lon;timestamp;temperature;humidity
14908;DHT22;7545;52.092;7.006;2022-07-23T00:02:22;17.80;99.90
14908;DHT22;7545;52.092;7.006;2022-07-23T00:04:47;17.70;99.90
14908;DHT22;7545;52.092;7.006;2022-07-23T00:07:13;17.70;99.90
14908;DHT22;7545;52.092;7.006;2022-07-23T00:09:39;17.70;99.90
14908;DHT22;7545;52.092;7.006;2022-07-23T00:12:05;17.60;99.90
14908;DHT22;7545;52.092;7.006;2022-07-23T00:14:31;17.60;99.90
14908;DHT22;7545;52.092;7.006;2022-07-23T00:16:56;17.60;99.90
14908;DHT22;7545;52.092;7.006;2022-07-23T00:19:22;17.60;99.90
14908;DHT22;7545;52.092;7.006;2022-07-23T00:21:47;17.60;99.90
14908;DHT22;7545;52.092;7.006;2022-07-23T00:24:13;17.60;99.90
14908;DHT22;7545;52.092;7.006;2022-07-23T00:26:39;17.60;99.90
14908;DHT22;7545;52.092;7.006;2022-07-23T00:29:04;17.60;99.90
14908;DHT22;7545;52.092;7.006;2022-07-23T00:31:30;17.60;99.90
14908;DHT22;7545;52.092;7.006;2022-07-23T00:33:56;17.60;99.90
14908;DHT22;7545;52.092;7.006;2022-07-23T00:36:23;17.60;99.90
14908;DHT22;7545;52.092;7.006;2022-07-23T00:38:49;17.60;99.90
14908;DHT22;7545;52.092;7.006;2022-07-23T00:41:15;17.50;99.90
14908;DHT22;7545;52.092;7.006;2022-07-23T00:43:41;17.60;99.90
14908;DHT22;7545;52.092;7.006;2022-07-23T00:46:06;17.60;99.90
14908;DHT22;7545;52.092;7.006;2022-07-23T00:48:32;17.50;99.90
14908;DHT22;7545;52.092;7.006;2022-07-23T00:50:58;17.50;99.90
14908;DHT22;7545;52.092;7.006;2022-07-23T00:53:23;17.50;99.90
14908;DHT22;7545;52.092;7.006;2022-07-23T00:55:49;17.50;99.90
14908;DHT22;7545;52.092;7.006;2022-07-23T00:58:16;17.50;99.90
14908;DHT22;7545;52.092;7.006;2022-07-23T01:00:42;17.40;99.90
14908;DHT22;7545;52.092;7.006;2022-07-23T01:03:08;17.40;99.90
14908;DHT22;7545;52.092;7.006;2022-07-23T01:05:33;17.40;99.90
14908;DHT22;7545;52.092;7.006;2022-07-23T01:07:59;17.30;99.90
14908;DHT22;7545;52.092;7.006;2022-07-23T01:10:25;17.30;99.90
14908;DHT22;7545;52.092;7.006;2022-07-23T01:13:07;17.30;99.90
14908;DHT22;7545;52.092;7.006;2022-07-23T01:15:34;17.30;99.90
14908;DHT22;7545;52.092;7.006;2022-07-23T01:18:01;17.30;99.90
14908;DHT22;7545;52.092;7.006;2022-07-23T01:20:27;17.20;99.90
14908;DHT22;7545;52.092;7.006;2022-07-23T01:22:53;17.20;99.90
14908;DHT22;7545;52.092;7.006;2022-07-23T01:25:19;17.10;99.90
14908;DHT22;7545;52.092;7.006;2022-07-23T01:27:45;17.10;99.90
14908;DHT22;7545;52.092;7.006;2022-07-23T01:30:11;17.00;99.90
14908;DHT22;7545;52.092;7.006;2022-07-23T01:32:38;17.00;99.90
14908;DHT22;7545;52.092;7.006;2022-07-23T01:35:04;17.00;99.90
14908;DHT22;7545;52.092;7.006;2022-07-23T01:37:30;16.90;99.90
14908;DHT22;7545;52.092;7.006;2022-07-23T01:39:56;16.90;99.90
14908;DHT22;7545;52.092;7.006;2022-07-23T01:42:21;16.90;99.90
14908;DHT22;7545;52.092;7.006;2022-07-23T01:44:47;16.90;99.90
14908;DHT22;7545;52.092;7.006;2022-07-23T01:47:13;16.90;99.90
14908;DHT22;7545;52.092;7.006;2022-07-23T01:49:38;16.80;99.90
14908;DHT22;7545;52.092;7.006;2022-07-23T01:52:04;16.80;99.90
14908;DHT22;7545;52.092;7.006;2022-07-23T01:54:34;16.80;99.90
14908;DHT22;7545;52.092;7.006;2022-07-23T01:57:00;16.80;99.90
14908;DHT22;7545;52.092;7.006;2022-07-23T01:59:27;16.70;99.90
14908;DHT22;7545;52.092;7.006;2022-07-23T02:01:53;16.70;99.90
14908;DHT22;7545;52.092;7.006;2022-07-23T02:04:21;16.70;99.90
14908;DHT22;7545;52.092;7.006;2022-07-23T02:06:47;16.70;99.90
14908;DHT22;7545;52.092;7.006;2022-07-23T02:09:13;16.70;99.90
14908;DHT22;7545;52.092;7.006;2022-07-23T02:11:39;16.60;99.90
14908;DHT22;7545;52.092;7.006;2022-07-23T02:14:05;16.60;99.90
14908;DHT22;7545;52.092;7.006;2022-07-23T02:16:30;16.60;99.90
14908;DHT22;7545;52.092;7.006;2022-07-23T02:18:56;16.60;99.90
14908;DHT22;7545;52.092;7.006;2022-07-23T02:21:22;16.60;99.90
14908;DHT22;7545;52.092;7.006;2022-07-23T02:23:48;16.60;99.90
14908;DHT22;7545;52.092;7.006;2022-07-23T02:26:13;16.60;99.90
14908;DHT22;7545;52.092;7.006;2022-07-23T02:28:39;16.60;99.90
14908;DHT22;7545;52.092;7.006;2022-07-23T02:31:04;16.60;99.90
14908;DHT22;7545;52.092;7.006;2022-07-23T02:33:32;16.60;99.90
14908;DHT22;7545;52.092;7.006;2022-07-23T02:35:58;16.60;99.90
14908;DHT22;7545;52.092;7.006;2022-07-23T02:38:24;16.60;99.90
14908;DHT22;7545;52.092;7.006;2022-07-23T02:40:49;16.60;99.90
14908;DHT22;7545;52.092;7.006;2022-07-23T02:43:15;16.60;99.90
14908;DHT22;7545;52.092;7.006;2022-07-23T02:45:41;16.60;99.90
14908;DHT22;7545;52.092;7.006;2022-07-23T02:48:06;16.50;99.90
14908;DHT22;7545;52.092;7.006;2022-07-23T02:50:32;16.50;99.90
14908;DHT22;7545;52.092;7.006;2022-07-23T02:52:58;16.50;99.90
14908;DHT22;7545;52.092;7.006;2022-07-23T02:55:23;16.50;99.90
14908;DHT22;7545;52.092;7.006;2022-07-23T02:57:49;16.50;99.90
14908;DHT22;7545;52.092;7.006;2022-07-23T03:00:15;16.50;99.90
14908;DHT22;7545;52.092;7.006;2022-07-23T03:02:40;16.40;99.90
14908;DHT22;7545;52.092;7.006;2022-07-23T03:05:06;16.40;99.90
14908;DHT22;7545;52.092;7.006;2022-07-23T03:07:32;16.30;99.90
14908;DHT22;7545;52.092;7.006;2022-07-23T03:09:58;16.30;99.90
14908;DHT22;7545;52.092;7.006;2022-07-23T03:12:23;16.20;99.90
14908;DHT22;7545;52.092;7.006;2022-07-23T03:14:49;16.20;99.90
14908;DHT22;7545;52.092;7.006;2022-07-23T03:17:15;16.30;99.90
14908;DHT22;7545;52.092;7.006;2022-07-23T03:19:40;16.20;99.90
14908;DHT22;7545;52.092;7.006;2022-07-23T03:22:06;16.10;99.90
14908;DHT22;7545;52.092;7.006;2022-07-23T03:24:32;16.10;99.90
14908;DHT22;7545;52.092;7.006;2022-07-23T03:27:16;16.10;99.90
14908;DHT22;7545;52.092;7.006;2022-07-23T03:29:41;16.10;99.90
14908;DHT22;7545;52.092;7.006;2022-07-23T03:32:07;16.00;99.90
14908;DHT22;7545;52.092;7.006;2022-07-23T03:34:32;16.00;99.90
14908;DHT22;7545;52.092;7.006;2022-07-23T03:36:58;16.00;99.90
14908;DHT22;7545;52.092;7.006;2022-07-23T03:39:24;16.00;99.90
14908;DHT22;7545;52.092;7.006;2022-07-23T03:41:49;15.90;99.90
14908;DHT22;7545;52.092;7.006;2022-07-23T03:44:15;15.90;99.90
14908;DHT22;7545;52.092;7.006;2022-07-23T03:46:40;15.90;99.90
14908;DHT22;7545;52.092;7.006;2022-07-23T03:49:06;15.80;99.90
14908;DHT22;7545;52.092;7.006;2022-07-23T03:51:32;15.80;99.90
14908;DHT22;7545;52.092;7.006;2022-07-23T03:53:57;15.80;99.90
14908;DHT22;7545;52.092;7.006;2022-07-23T03:56:23;15.80;99.90
14908;DHT22;7545;52.092;7.006;2022-07-23T03:58:49;15.70;99.90
14908;DHT22;7545;52.092;7.006;2022-07-23T04:01:15;15.70;99.90
14908;DHT22;7545;52.092;7.006;2022-07-23T04:03:40;15.70;99.90
14908;DHT22;7545;52.092;7.006;2022-07-23T04:06:06;15.70;99.90
14908;DHT22;7545;52.092;7.006;2022-07-23T04:08:32;15.70;99.90
14908;DHT22;7545;52.092;7.006;2022-07-23T04:10:58;15.60;99.90
14908;DHT22;7545;52.092;7.006;2022-07-23T04:13:23;15.60;99.90
14908;DHT22;7545;52.092;7.006;2022-07-23T04:15:49;15.60;99.90
14908;DHT22;7545;52.092;7.006;2022-07-23T04:18:16;15.60;99.90
14908;DHT22;7545;52.092;7.006;2022-07-23T04:20:43;15.70;99.90
14908;DHT22;7545;52.092;7.006;2022-07-23T04:23:09;15.70;99.90
14908;DHT22;7545;52.092;7.006;2022-07-23T04:25:35;15.60;99.90
14908;DHT22;7545;52.092;7.006;2022-07-23T04:28:00;15.70;99.90
14908;DHT22;7545;52.092;7.006;2022-07-23T04:30:26;15.60;99.90
14908;DHT22;7545;52.092;7.006;2022-07-23T04:32:52;15.60;99.90
14908;DHT22;7545;52.092;7.006;2022-07-23T04:35:17;15.70;99.90
14908;DHT22;7545;52.092;7.006;2022-07-23T04:37:43;15.70;99.90
14908;DHT22;7545;52.092;7.006;2022-07-23T04:40:09;15.70;99.90
14908;DHT22;7545;52.092;7.006;2022-07-23T04:42:35;15.70;99.90
14908;DHT22;7545;52.092;7.006;2022-07-23T04:45:01;15.70;99.90
14908;DHT22;7545;52.092;7.006;2022-07-23T04:47:27;15.70;99.90
14908;DHT22;7545;52.092;7.006;2022-07-23T04:49:52;15.70;99.90
14908;DHT22;7545;52.092;7.006;2022-07-23T04:52:18;15.70;99.90
14908;DHT22;7545;52.092;7.006;2022-07-23T04:54:43;15.70;99.90
14908;DHT22;7545;52.092;7.006;2022-07-23T04:57:09;15.70;99.90
14908;DHT22;7545;52.092;7.006;2022-07-23T04:59:35;15.70;99.90
14908;DHT22;7545;52.092;7.006;2022-07-23T05:02:00;15.70;99.90
14908;DHT22;7545;52.092;7.006;2022-07-23T05:04:26;15.80;99.90
14908;DHT22;7545;52.092;7.006;2022-07-23T05:06:51;15.80;99.90
14908;DHT22;7545;52.092;7.006;2022-07-23T05:09:17;15.80;99.90
14908;DHT22;7545;52.092;7.006;2022-07-23T05:11:43;15.80;99.90
14908;DHT22;7545;52.092;7.006;2022-07-23T05:14:08;15.80;99.90
14908;DHT22;7545;52.092;7.006;2022-07-23T05:16:34;15.90;99.90
14908;DHT22;7545;52.092;7.006;2022-07-23T05:18:59;15.90;99.90
14908;DHT22;7545;52.092;7.006;2022-07-23T05:21:25;15.90;99.90
14908;DHT22;7545;52.092;7.006;2022-07-23T05:23:51;15.90;99.90
14908;DHT22;7545;52.092;7.006;2022-07-23T05:26:16;16.00;99.90
14908;DHT22;7545;52.092;7.006;2022-07-23T05:28:42;16.00;99.90
14908;DHT22;7545;52.092;7.006;2022-07-23T05:31:07;16.10;99.90
14908;DHT22;7545;52.092;7.006;2022-07-23T05:33:33;16.10;99.90
14908;DHT22;7545;52.092;7.006;2022-07-23T05:36:03;16.10;99.90
14908;DHT22;7545;52.092;7.006;2022-07-23T05:38:29;16.00;99.90
14908;DHT22;7545;52.092;7.006;2022-07-23T05:40:55;16.00;99.90
14908;DHT22;7545;52.092;7.006;2022-07-23T05:43:21;16.00;99.90
14908;DHT22;7545;52.092;7.006;2022-07-23T05:45:46;16.00;99.90
14908;DHT22;7545;52.092;7.006;2022-07-23T05:48:12;16.10;99.90
14908;DHT22;7545;52.092;7.006;2022-07-23T05:50:38;16.10;99.90
14908;DHT22;7545;52.092;7.006;2022-07-23T05:53:04;16.10;99.90
14908;DHT22;7545;52.092;7.006;2022-07-23T05:55:29;16.10;99.90
14908;DHT22;7545;52.092;7.006;2022-07-23T05:57:57;16.20;99.90
14908;DHT22;7545;52.092;7.006;2022-07-23T06:00:23;16.20;99.90
14908;DHT22;7545;52.092;7.006;2022-07-23T06:02:49;16.20;99.90
14908;DHT22;7545;52.092;7.006;2022-07-23T06:05:15;16.20;99.90
14908;DHT22;7545;52.092;7.006;2022-07-23T06:07:41;16.30;99.90
14908;DHT22;7545;52.092;7.006;2022-07-23T06:10:07;16.30;99.90
14908;DHT22;7545;52.092;7.006;2022-07-23T06:12:32;16.30;99.90
14908;DHT22;7545;52.092;7.006;2022-07-23T06:14:58;16.40;99.90
14908;DHT22;7545;52.092;7.006;2022-07-23T06:17:25;16.40;99.90
14908;DHT22;7545;52.092;7.006;2022-07-23T06:19:50;16.50;99.90
14908;DHT22;7545;52.092;7.006;2022-07-23T06:22:16;16.50;99.90
14908;DHT22;7545;52.092;7.006;2022-07-23T06:24:42;16.50;99.90
14908;DHT22;7545;52.092;7.006;2022-07-23T06:27:07;16.60;99.90
14908;DHT22;7545;52.092;7.006;2022-07-23T06:29:33;16.60;99.90
14908;DHT22;7545;52.092;7.006;2022-07-23T06:31:59;16.60;99.90
14908;DHT22;7545;52.092;7.006;2022-07-23T06:34:24;16.60;99.90
14908;DHT22;7545;52.092;7.006;2022-07-23T06:36:50;16.60;99.90
14908;DHT22;7545;52.092;7.006;2022-07-23T06:39:15;16.70;99.90
14908;DHT22;7545;52.092;7.006;2022-07-23T06:41:41;16.70;99.90
14908;DHT22;7545;52.092;7.006;2022-07-23T06:44:07;16.70;99.90
14908;DHT22;7545;52.092;7.006;2022-07-23T06:46:33;16.70;99.90
14908;DHT22;7545;52.092;7.006;2022-07-23T06:48:59;16.80;99.90
14908;DHT22;7545;52.092;7.006;2022-07-23T06:51:24;16.80;99.90
14908;DHT22;7545;52.092;7.006;2022-07-23T06:53:50;16.80;99.90
14908;DHT22;7545;52.092;7.006;2022-07-23T06:56:16;16.90;99.90
14908;DHT22;7545;52.092;7.006;2022-07-23T06:58:41;16.90;99.90
14908;DHT22;7545;52.092;7.006;2022-07-23T07:01:07;16.90;99.90
14908;DHT22;7545;52.092;7.006;2022-07-23T07:03:33;17.00;99.90
14908;DHT22;7545;52.092;7.006;2022-07-23T07:05:58;17.00;99.90
14908;DHT22;7545;52.092;7.006;2022-07-23T07:08:24;17.00;99.90
14908;DHT22;7545;52.092;7.006;2022-07-23T07:10:50;17.10;99.90
14908;DHT22;7545;52.092;7.006;2022-07-23T07:13:15;17.20;99.90
14908;DHT22;7545;52.092;7.006;2022-07-23T07:15:41;17.10;99.90
14908;DHT22;7545;52.092;7.006;2022-07-23T07:18:07;17.20;99.90
14908;DHT22;7545;52.092;7.006;2022-07-23T07:20:33;17.20;99.90
14908;DHT22;7545;52.092;7.006;2022-07-23T07:22:58;17.20;99.90
14908;DHT22;7545;52.092;7.006;2022-07-23T07:25:24;17.20;99.90
14908;DHT22;7545;52.092;7.006;2022-07-23T07:27:50;17.30;99.90
14908;DHT22;7545;52.092;7.006;2022-07-23T07:30:16;17.30;99.90
14908;DHT22;7545;52.092;7.006;2022-07-23T07:32:42;17.30;99.90
14908;DHT22;7545;52.092;7.006;2022-07-23T07:35:08;17.40;99.90
14908;DHT22;7545;52.092;7.006;2022-07-23T07:37:34;17.30;99.90
14908;DHT22;7545;52.092;7.006;2022-07-23T07:40:00;17.40;99.90
14908;DHT22;7545;52.092;7.006;2022-07-23T07:42:26;17.50;99.90
14908;DHT22;7545;52.092;7.006;2022-07-23T07:44:51;17.50;99.90
14908;DHT22;7545;52.092;7.006;2022-07-23T07:47:17;17.60;99.90
14908;DHT22;7545;52.092;7.006;2022-07-23T07:49:43;17.60;99.90
14908;DHT22;7545;52.092;7.006;2022-07-23T07:52:09;17.70;99.90
14908;DHT22;7545;52.092;7.006;2022-07-23T07:54:35;17.70;99.90
14908;DHT22;7545;52.092;7.006;2022-07-23T07:57:01;17.80;99.90
14908;DHT22;7545;52.092;7.006;2022-07-23T07:59:27;17.80;99.90
14908;DHT22;7545;52.092;7.006;2022-07-23T08:01:52;17.80;99.90
14908;DHT22;7545;52.092;7.006;2022-07-23T08:04:18;17.90;99.90
14908;DHT22;7545;52.092;7.006;2022-07-23T08:06:44;18.00;99.90
14908;DHT22;7545;52.092;7.006;2022-07-23T08:09:10;18.10;99.90
14908;DHT22;7545;52.092;7.006;2022-07-23T08:11:35;18.10;99.90
14908;DHT22;7545;52.092;7.006;2022-07-23T08:14:01;18.20;99.90
14908;DHT22;7545;52.092;7.006;2022-07-23T08:16:27;18.30;99.90
14908;DHT22;7545;52.092;7.006;2022-07-23T08:18:52;18.30;99.90
14908;DHT22;7545;52.092;7.006;2022-07-23T08:21:18;18.40;99.90
14908;DHT22;7545;52.092;7.006;2022-07-23T08:23:44;18.50;99.90
14908;DHT22;7545;52.092;7.006;2022-07-23T08:26:11;18.50;99.90
14908;DHT22;7545;52.092;7.006;2022-07-23T08:28:36;18.60;99.90
14908;DHT22;7545;52.092;7.006;2022-07-23T08:31:02;18.60;99.90
14908;DHT22;7545;52.092;7.006;2022-07-23T08:33:28;18.70;99.90
14908;DHT22;7545;52.092;7.006;2022-07-23T08:35:53;18.70;99.90
14908;DHT22;7545;52.092;7.006;2022-07-23T08:38:21;18.70;99.90
14908;DHT22;7545;52.092;7.006;2022-07-23T08:40:49;18.70;99.90
14908;DHT22;7545;52.092;7.006;2022-07-23T08:43:26;18.70;99.90
14908;DHT22;7545;52.092;7.006;2022-07-23T08:45:54;18.80;99.90
14908;DHT22;7545;52.092;7.006;2022-07-23T08:48:25;18.90;99.90
14908;DHT22;7545;52.092;7.006;2022-07-23T08:50:54;18.90;99.90
14908;DHT22;7545;52.092;7.006;2022-07-23T08:53:22;18.90;99.90
14908;DHT22;7545;52.092;7.006;2022-07-23T08:55:52;19.00;99.90
14908;DHT22;7545;52.092;7.006;2022-07-23T08:58:18;19.00;99.90
14908;DHT22;7545;52.092;7.006;2022-07-23T09:00:45;19.10;99.90
14908;DHT22;7545;52.092;7.006;2022-07-23T09:03:34;19.20;99.90
14908;DHT22;7545;52.092;7.006;2022-07-23T09:06:02;19.20;99.90
14908;DHT22;7545;52.092;7.006;2022-07-23T09:08:48;19.30;99.90
14908;DHT22;7545;52.092;7.006;2022-07-23T09:11:16;19.40;99.90
14908;DHT22;7545;52.092;7.006;2022-07-23T09:13:51;19.50;99.90
14908;DHT22;7545;52.092;7.006;2022-07-23T09:16:31;19.50;99.90
14908;DHT22;7545;52.092;7.006;2022-07-23T09:19:01;19.50;99.90
14908;DHT22;7545;52.092;7.006;2022-07-23T09:21:32;19.60;99.90
14908;DHT22;7545;52.092;7.006;2022-07-23T09:24:12;19.60;99.90
14908;DHT22;7545;52.092;7.006;2022-07-23T09:26:38;19.70;99.90
14908;DHT22;7545;52.092;7.006;2022-07-23T09:29:06;19.70;99.90
14908;DHT22;7545;52.092;7.006;2022-07-23T09:31:59;19.90;99.90
14908;DHT22;7545;52.092;7.006;2022-07-23T09:34:27;20.10;99.90
14908;DHT22;7545;52.092;7.006;2022-07-23T09:36:55;20.20;99.90
14908;DHT22;7545;52.092;7.006;2022-07-23T09:39:33;20.20;99.90
14908;DHT22;7545;52.092;7.006;2022-07-23T09:44:47;20.50;99.90
14908;DHT22;7545;52.092;7.006;2022-07-23T09:47:13;20.60;99.90
14908;DHT22;7545;52.092;7.006;2022-07-23T09:49:39;20.60;99.90
14908;DHT22;7545;52.092;7.006;2022-07-23T09:52:05;20.70;99.90
14908;DHT22;7545;52.092;7.006;2022-07-23T09:54:37;20.80;99.90
14908;DHT22;7545;52.092;7.006;2022-07-23T09:59:34;21.00;99.90
14908;DHT22;7545;52.092;7.006;2022-07-23T10:02:00;21.10;99.90
14908;DHT22;7545;52.092;7.006;2022-07-23T10:04:28;21.20;99.90
14908;DHT22;7545;52.092;7.006;2022-07-23T10:07:00;21.30;99.90
14908;DHT22;7545;52.092;7.006;2022-07-23T10:09:28;21.40;99.90
14908;DHT22;7545;52.092;7.006;2022-07-23T10:11:57;21.50;99.90
14908;DHT22;7545;52.092;7.006;2022-07-23T10:14:30;21.50;99.90
14908;DHT22;7545;52.092;7.006;2022-07-23T10:16:57;21.60;99.90
14908;DHT22;7545;52.092;7.006;2022-07-23T10:19:24;21.70;99.90
14908;DHT22;7545;52.092;7.006;2022-07-23T10:21:55;21.70;99.90
14908;DHT22;7545;52.092;7.006;2022-07-23T10:27:02;21.70;99.90
14908;DHT22;7545;52.092;7.006;2022-07-23T10:30:29;21.70;99.90
14908;DHT22;7545;52.092;7.006;2022-07-23T10:32:31;21.70;99.90
14908;DHT22;7545;52.092;7.006;2022-07-23T10:43:24;22.10;99.90
14908;DHT22;7545;52.092;7.006;2022-07-23T10:45:51;22.10;99.90
14908;DHT22;7545;52.092;7.006;2022-07-23T10:48:19;22.20;99.90
14908;DHT22;7545;52.092;7.006;2022-07-23T10:51:11;22.30;99.90
14908;DHT22;7545;52.092;7.006;2022-07-23T10:56:50;22.40;99.90
14908;DHT22;7545;52.092;7.006;2022-07-23T10:59:29;22.50;99.90
14908;DHT22;7545;52.092;7.006;2022-07-23T11:02:20;22.60;99.90
14908;DHT22;7545;52.092;7.006;2022-07-23T11:04:50;22.60;99.90
14908;DHT22;7545;52.092;7.006;2022-07-23T11:07:16;22.70;99.90
14908;DHT22;7545;52.092;7.006;2022-07-23T11:09:43;22.80;99.90
14908;DHT22;7545;52.092;7.006;2022-07-23T11:17:23;23.00;99.90
14908;DHT22;7545;52.092;7.006;2022-07-23T11:25:28;23.20;99.90
14908;DHT22;7545;52.092;7.006;2022-07-23T11:27:55;23.30;99.90
14908;DHT22;7545;52.092;7.006;2022-07-23T11:35:37;23.40;99.90
14908;DHT22;7545;52.092;7.006;2022-07-23T11:38:08;23.40;99.90
14908;DHT22;7545;52.092;7.006;2022-07-23T11:40:38;23.40;99.90
14908;DHT22;7545;52.092;7.006;2022-07-23T11:43:06;23.40;99.90
14908;DHT22;7545;52.092;7.006;2022-07-23T11:48:16;23.50;99.90
14908;DHT22;7545;52.092;7.006;2022-07-23T11:50:41;23.60;99.90
14908;DHT22;7545;52.092;7.006;2022-07-23T11:53:07;23.70;99.90
14908;DHT22;7545;52.092;7.006;2022-07-23T11:55:33;23.80;99.90
14908;DHT22;7545;52.092;7.006;2022-07-23T11:57:58;23.80;99.90
14908;DHT22;7545;52.092;7.006;2022-07-23T12:00:27;23.90;99.90
14908;DHT22;7545;52.092;7.006;2022-07-23T12:02:56;23.80;99.90
14908;DHT22;7545;52.092;7.006;2022-07-23T12:05:44;23.70;99.90
14908;DHT22;7545;52.092;7.006;2022-07-23T12:08:10;23.70;99.90
14908;DHT22;7545;52.092;7.006;2022-07-23T12:10:43;23.80;99.90
14908;DHT22;7545;52.092;7.006;2022-07-23T12:13:14;23.80;99.90
14908;DHT22;7545;52.092;7.006;2022-07-23T12:15:48;23.80;99.90
14908;DHT22;7545;52.092;7.006;2022-07-23T12:18:18;23.80;99.90
14908;DHT22;7545;52.092;7.006;2022-07-23T12:20:56;23.90;99.90
14908;DHT22;7545;52.092;7.006;2022-07-23T12:23:25;24.00;99.90
14908;DHT22;7545;52.092;7.006;2022-07-23T12:25:51;24.00;99.90
14908;DHT22;7545;52.092;7.006;2022-07-23T12:28:18;24.10;99.90
14908;DHT22;7545;52.092;7.006;2022-07-23T12:30:51;24.10;99.90
14908;DHT22;7545;52.092;7.006;2022-07-23T12:33:34;24.10;99.90
14908;DHT22;7545;52.092;7.006;2022-07-23T12:36:02;24.10;99.90
14908;DHT22;7545;52.092;7.006;2022-07-23T12:38:38;24.00;99.90
14908;DHT22;7545;52.092;7.006;2022-07-23T12:41:04;24.00;99.90
14908;DHT22;7545;52.092;7.006;2022-07-23T12:43:36;24.10;99.90
14908;DHT22;7545;52.092;7.006;2022-07-23T12:46:03;24.10;99.90
14908;DHT22;7545;52.092;7.006;2022-07-23T12:48:30;24.20;99.90
14908;DHT22;7545;52.092;7.006;2022-07-23T12:51:01;24.20;99.90
14908;DHT22;7545;52.092;7.006;2022-07-23T12:56:09;24.30;99.90
14908;DHT22;7545;52.092;7.006;2022-07-23T13:01:21;24.50;99.90
14908;DHT22;7545;52.092;7.006;2022-07-23T13:06:50;24.70;99.90
14908;DHT22;7545;52.092;7.006;2022-07-23T13:09:20;24.80;99.90
14908;DHT22;7545;52.092;7.006;2022-07-23T13:11:47;24.90;99.90
14908;DHT22;7545;52.092;7.006;2022-07-23T13:14:14;25.00;99.90
14908;DHT22;7545;52.092;7.006;2022-07-23T13:16:42;25.00;99.90
14908;DHT22;7545;52.092;7.006;2022-07-23T13:19:08;24.90;99.90
14908;DHT22;7545;52.092;7.006;2022-07-23T13:21:34;24.70;99.90
14908;DHT22;7545;52.092;7.006;2022-07-23T13:24:00;24.70;99.90
14908;DHT22;7545;52.092;7.006;2022-07-23T13:26:26;24.80;99.90
14908;DHT22;7545;52.092;7.006;2022-07-23T13:28:52;24.90;99.90
14908;DHT22;7545;52.092;7.006;2022-07-23T13:31:18;25.00;99.90
14908;DHT22;7545;52.092;7.006;2022-07-23T13:33:44;25.00;99.90
14908;DHT22;7545;52.092;7.006;2022-07-23T13:36:10;25.00;99.90
14908;DHT22;7545;52.092;7.006;2022-07-23T13:38:36;25.00;99.90
14908;DHT22;7545;52.092;7.006;2022-07-23T13:41:02;25.10;99.90
14908;DHT22;7545;52.092;7.006;2022-07-23T13:43:29;25.10;99.90
14908;DHT22;7545;52.092;7.006;2022-07-23T13:45:55;25.20;99.90
14908;DHT22;7545;52.092;7.006;2022-07-23T13:48:21;25.20;99.90
14908;DHT22;7545;52.092;7.006;2022-07-23T13:50:48;25.30;99.90
14908;DHT22;7545;52.092;7.006;2022-07-23T13:53:17;25.40;99.90
14908;DHT22;7545;52.092;7.006;2022-07-23T13:55:43;25.40;99.90
14908;DHT22;7545;52.092;7.006;2022-07-23T13:58:10;25.40;99.90
14908;DHT22;7545;52.092;7.006;2022-07-23T14:00:38;25.30;99.90
14908;DHT22;7545;52.092;7.006;2022-07-23T14:03:04;25.40;99.90
14908;DHT22;7545;52.092;7.006;2022-07-23T14:05:30;25.50;99.90
14908;DHT22;7545;52.092;7.006;2022-07-23T14:07:56;25.60;99.90
14908;DHT22;7545;52.092;7.006;2022-07-23T14:10:22;25.60;99.90
14908;DHT22;7545;52.092;7.006;2022-07-23T14:12:50;25.50;99.90
14908;DHT22;7545;52.092;7.006;2022-07-23T14:15:16;25.40;99.90
14908;DHT22;7545;52.092;7.006;2022-07-23T14:17:44;25.30;99.90
14908;DHT22;7545;52.092;7.006;2022-07-23T14:20:11;25.20;99.90
14908;DHT22;7545;52.092;7.006;2022-07-23T14:22:37;25.30;99.90
14908;DHT22;7545;52.092;7.006;2022-07-23T14:25:04;25.40;99.90
14908;DHT22;7545;52.092;7.006;2022-07-23T14:27:30;25.40;99.90
14908;DHT22;7545;52.092;7.006;2022-07-23T14:29:56;25.50;99.90
14908;DHT22;7545;52.092;7.006;2022-07-23T14:32:22;25.60;99.90
14908;DHT22;7545;52.092;7.006;2022-07-23T14:34:48;25.60;99.90
14908;DHT22;7545;52.092;7.006;2022-07-23T14:37:14;25.70;99.90
14908;DHT22;7545;52.092;7.006;2022-07-23T14:39:40;25.80;99.90
14908;DHT22;7545;52.092;7.006;2022-07-23T14:42:07;25.80;99.90
14908;DHT22;7545;52.092;7.006;2022-07-23T14:44:33;25.90;99.90
14908;DHT22;7545;52.092;7.006;2022-07-23T14:47:00;26.00;99.90
14908;DHT22;7545;52.092;7.006;2022-07-23T14:49:26;26.00;99.90
14908;DHT22;7545;52.092;7.006;2022-07-23T14:51:52;26.00;99.90
14908;DHT22;7545;52.092;7.006;2022-07-23T14:54:18;25.90;99.90
14908;DHT22;7545;52.092;7.006;2022-07-23T14:56:46;25.90;99.90
14908;DHT22;7545;52.092;7.006;2022-07-23T14:59:12;25.90;99.90
14908;DHT22;7545;52.092;7.006;2022-07-23T15:01:38;25.80;99.90
14908;DHT22;7545;52.092;7.006;2022-07-23T15:04:05;25.60;99.90
14908;DHT22;7545;52.092;7.006;2022-07-23T15:06:31;25.50;99.90
14908;DHT22;7545;52.092;7.006;2022-07-23T15:08:57;25.50;99.90
14908;DHT22;7545;52.092;7.006;2022-07-23T15:11:23;25.40;99.90
14908;DHT22;7545;52.092;7.006;2022-07-23T15:13:48;25.50;99.90
14908;DHT22;7545;52.092;7.006;2022-07-23T15:16:14;25.50;99.90
14908;DHT22;7545;52.092;7.006;2022-07-23T15:18:40;25.50;99.90
14908;DHT22;7545;52.092;7.006;2022-07-23T15:21:06;25.50;99.90
14908;DHT22;7545;52.092;7.006;2022-07-23T15:23:31;25.60;99.90
14908;DHT22;7545;52.092;7.006;2022-07-23T15:25:58;25.40;99.90
14908;DHT22;7545;52.092;7.006;2022-07-23T15:28:24;25.30;99.90
14908;DHT22;7545;52.092;7.006;2022-07-23T15:30:50;25.20;99.90
14908;DHT22;7545;52.092;7.006;2022-07-23T15:33:17;25.10;99.90
14908;DHT22;7545;52.092;7.006;2022-07-23T15:35:43;25.00;99.90
14908;DHT22;7545;52.092;7.006;2022-07-23T15:38:08;25.00;99.90
14908;DHT22;7545;52.092;7.006;2022-07-23T15:40:34;25.00;99.90
14908;DHT22;7545;52.092;7.006;2022-07-23T15:43:01;25.00;99.90
14908;DHT22;7545;52.092;7.006;2022-07-23T15:45:26;24.80;99.90
14908;DHT22;7545;52.092;7.006;2022-07-23T15:47:52;24.60;99.90
14908;DHT22;7545;52.092;7.006;2022-07-23T15:50:18;24.50;99.90
14908;DHT22;7545;52.092;7.006;2022-07-23T15:52:43;24.50;99.90
14908;DHT22;7545;52.092;7.006;2022-07-23T15:55:09;24.50;99.90
14908;DHT22;7545;52.092;7.006;2022-07-23T15:57:35;24.50;99.90
14908;DHT22;7545;52.092;7.006;2022-07-23T16:00:01;24.50;99.90
14908;DHT22;7545;52.092;7.006;2022-07-23T16:02:27;24.60;99.90
14908;DHT22;7545;52.092;7.006;2022-07-23T16:04:53;24.60;99.90
14908;DHT22;7545;52.092;7.006;2022-07-23T16:07:20;24.70;99.90
14908;DHT22;7545;52.092;7.006;2022-07-23T16:09:46;24.80;99.90
14908;DHT22;7545;52.092;7.006;2022-07-23T16:12:12;24.80;99.90
14908;DHT22;7545;52.092;7.006;2022-07-23T16:14:37;24.80;99.90
14908;DHT22;7545;52.092;7.006;2022-07-23T16:17:03;24.90;99.90
14908;DHT22;7545;52.092;7.006;2022-07-23T16:19:29;24.90;99.90
14908;DHT22;7545;52.092;7.006;2022-07-23T16:21:55;24.90;99.90
14908;DHT22;7545;52.092;7.006;2022-07-23T16:24:20;24.90;99.90
14908;DHT22;7545;52.092;7.006;2022-07-23T16:26:46;24.80;99.90
14908;DHT22;7545;52.092;7.006;2022-07-23T16:29:12;24.80;99.90
14908;DHT22;7545;52.092;7.006;2022-07-23T16:31:39;24.70;99.90